El Paso, TX (88541)

6:17 PM MDT on September 02, 2014 (GMT -0600)
Shock | Change Station
CLOSE
Current Station
Personal Weather Station
Location: El Paso, TX
Elevation: 3924 ft
Nearby Weather Stations

Elev 3924 ft 31.76 °N, 106.33 °W | Updated 14 minutes ago

Partly Cloudy
Partly Cloudy
100.0 °F
Feels Like 95 °F
N
3.2
Wind Variable Wind from SSE

Today
High -- | Low -- °F
--% Chance of Precip.
Yesterday
High -- | Low -- °F
Precip. -- in
6:41 AM 7:28 PM
First Quarter, 56% visible
Pressure 29.64 in
Visibility 10.0 miles
Clouds Few 13000 ft
Heat Index 95 °F
Dew Point 36 °F
Humidity 11%
Rainfall 0.00 in
Snow Depth Not available.
UV 1 out of 12
Pollen 9.70 out of 12
Air Quality Not available.
Flu Activity Not available.
METAR KELP 022351Z 00000KT 10SM FEW130 37/M02 A2989 RMK AO2 SLP036 T03671022 10378 20333 56019

More Conditions Fewer Conditions

Pressure 29.64 in
Visibility 10.0 miles
Clouds Few 13000 ft
Heat Index 95 °F
Dew Point 36 °F
Humidity 11%
Rainfall 0.00 in
Snow Depth Not available.
UV 1 out of 12
Pollen 9.70 out of 12
Air Quality Not available.
Flu Activity Not available.
METAR KELP 022351Z 00000KT 10SM FEW130 37/M02 A2989 RMK AO2 SLP036 T03671022 10378 20333 56019

More Conditions Fewer Conditions

10-Day Weather Forecast

Almanac

Astronomy

Sep. 02, 2014 Rise Set
Actual Time 6:41 AM MDT 7:28 PM MDT
Civil Twilight 6:17 AM MDT 7:53 PM MDT
Nautical Twilight 5:47 AM MDT 8:22 PM MDT
Astronomical Twilight 5:17 AM MDT 8:52 PM MDT
Moon 2:03 PM MDT (9/2) No Moon Set
Length of Visible Light 13h 35m
Length of Day
12h 46m
Tomorrow will be 1m 52s shorter.
First Quarter, 56% of the Moon is Illuminated
Today
First Quarter
Sep 8
Full
Sep 15
Last Quarter
Sep 24
New
Oct 1
First Quarter

Today's Extremes

State Highs State Lows

Community

WunderPhotos

Upload Photos

1,749,807 photos uploaded!

Nearby

Snow Depth

Station Depth Elevation
No new snow has been reported.

Earthquake Activity

City Distance Mag. Time & Date
No recent earthquake activity has been reported nearby.
Minimum magnitude displayed is 2.5.

Coastal Water Temperatures

Place Temperature
No Stations Reporting

Nearby Weather Stations